Grand Pearl — 3EPV3 — position and weather

sailwx.info

Track history (hours):
 
Tides and Currents Weather Stations Pressure Air Temp Water Temp Dewpoint Dewpoint Depression Visibility Wind Speed Wind Dir Waves Ship Positions

Grand Pearl

Last reported at 2017-Nov-14 14:58 UTC. Time now 2017-Nov-22 20:36 UTC.
Position N 09°16' W 016°16'.
Warning: this ship's position is 8 days out of date.

Length 199 m; draft 9.6 m.

Type: Cargo ship. MMSI: 371147000.

Date/timePositionNaut miles runAvg speedWind from/ knotsBaromVisibWave heightAir tempDewpointWater temp
2017-Nov-14 14:58N 09°16' W 016°16'  
2017-Nov-11 17:13N 28°15' W 016°07'517.5
2017-Nov-11 16:56N 28°19' W 016°03'817.6
2017-Nov-11 16:30N 28°25' W 015°58'917.5
2017-Nov-11 16:01N 28°32' W 015°52'917.3
2017-Nov-11 15:30N 28°39' W 015°46'917.2
2017-Nov-11 15:01N 28°45' W 015°40'917.2
2017-Nov-11 14:30N 28°52' W 015°34'917.0
2017-Nov-11 14:00N 28°59' W 015°28'816.4
2017-Nov-11 13:30N 29°06' W 015°23'816.5
2017-Nov-11 13:00N 29°14' W 015°21'917.0
2017-Nov-11 12:30N 29°23' W 015°18'817.0
2017-Nov-11 12:00N 29°31' W 015°16'917.0
2017-Nov-11 11:30N 29°39' W 015°13'816.9
2017-Nov-11 11:00N 29°47' W 015°10'816.9
2017-Nov-11 10:30N 29°55' W 015°08'816.9
2017-Nov-11 10:01N 30°03' W 015°05'816.8
2017-Nov-11 09:31N 30°11' W 015°02'816.9
2017-Nov-11 09:00N 30°20' W 014°60'816.8
2017-Nov-11 08:30N 30°28' W 014°57'916.7
2017-Nov-11 07:59N 30°36' W 014°55'816.8
2017-Nov-11 07:30N 30°44' W 014°52'917.0
2017-Nov-11 07:00N 30°52' W 014°50'1016.9
2017-Nov-11 06:25N 31°02' W 014°46'716.9
2017-Nov-11 06:00N 31°08' W 014°44'916.9
2017-Nov-11 05:27N 31°17' W 014°42'816.8
2017-Nov-11 05:00N 31°25' W 014°39'916.8
2017-Nov-11 04:29N 31°33' W 014°36'816.6
2017-Nov-11 04:00N 31°41' W 014°34'1216.6
2017-Nov-11 03:16N 31°52' W 014°30'3216.5
2017-Nov-11 01:20N 32°23' W 014°20'516.1
2017-Nov-11 01:01N 32°28' W 014°19'816.3
2017-Nov-11 00:30N 32°36' W 014°16'816.6
2017-Nov-11 00:00N 32°44' W 014°13'816.5
2017-Nov-10 23:31N 32°52' W 014°11'6716.5
2017-Nov-10 19:25N 33°57' W 013°50'2516.7
2017-Nov-10 17:53N 34°22' W 013°41'3117.2
2017-Nov-10 16:04N 34°52' W 013°31'217.0
2017-Nov-10 15:56N 34°54' W 013°30'  
2017-Nov-08 04:46N 49°40' W 003°36'717.5
2017-Nov-08 04:23N 49°44' W 003°27'718.7
2017-Nov-08 04:01N 49°48' W 003°19'1019.0
2017-Nov-08 03:30N 49°54' W 003°07'1019.4
2017-Nov-08 03:01N 49°58' W 002°53'1019.3
2017-Nov-08 02:31N 50°01' W 002°39'918.8
2017-Nov-08 02:01N 50°04' W 002°25'1117.9
2017-Nov-08 01:24N 50°08' W 002°09'716.8
2017-Nov-08 01:00N 50°10' W 001°59'815.9
2017-Nov-08 00:30N 50°12' W 001°47'815.1
2017-Nov-08 00:00N 50°14' W 001°36'714.5
2017-Nov-07 23:30N 50°16' W 001°25'714.0
2017-Nov-07 23:00N 50°17' W 001°14'713.4
2017-Nov-07 22:29N 50°19' W 001°04'713.5
2017-Nov-07 21:59N 50°21' W 000°54'2014.7
2017-Nov-07 20:38N 50°26' W 000°24'215.5
2017-Nov-07 20:30N 50°27' W 000°21'816.1
2017-Nov-07 20:01N 50°30' W 000°09'916.8
2017-Nov-07 19:30N 50°32' E 000°04'917.4
2017-Nov-07 19:01N 50°35' E 000°17'917.9
2017-Nov-07 18:31N 50°37' E 000°31'917.9
2017-Nov-07 18:01N 50°40' E 000°44'917.4
2017-Nov-07 17:31N 50°45' E 000°55'816.6
2017-Nov-07 17:01N 50°50' E 001°06'815.8
2017-Nov-07 16:31N 50°54' E 001°17'714.8
2017-Nov-07 16:01N 50°59' E 001°24'713.9
2017-Nov-07 15:30N 51°05' E 001°31'612.7
2017-Nov-07 15:00N 51°09' E 001°39'713.2
2017-Nov-07 14:30N 51°14' E 001°46'713.7
2017-Nov-07 14:00N 51°20' E 001°51'714.7
2017-Nov-07 13:30N 51°26' E 001°56'815.4
2017-Nov-07 13:00N 51°33' E 002°02'816.7
2017-Nov-07 12:30N 51°39' E 002°12'1017.4
2017-Nov-07 11:56N 51°46' E 002°23'8717.2
2017-Nov-07 06:52N 52°54' E 003°53'1015.1
2017-Nov-07 06:11N 53°01' E 004°06'315.3
2017-Nov-07 06:00N 53°02' E 004°09'815.1
2017-Nov-07 05:30N 53°08' E 004°19'714.5
2017-Nov-07 04:59N 53°13' E 004°26'715.3
2017-Nov-07 04:30N 53°20' E 004°30'1015.7
2017-Nov-07 03:51N 53°29' E 004°39'617.2
2017-Nov-07 03:28N 53°31' E 004°49'817.5
2017-Nov-07 03:00N 53°33' E 005°03'1317.7
2017-Nov-07 02:16N 53°38' E 005°23'517.7
2017-Nov-07 01:59N 53°39' E 005°31'7616.0
2017-Nov-06 21:14N 53°59' E 007°35'413.7
2017-Nov-06 20:56N 53°57' E 007°41'613.4
2017-Nov-06 20:27N 53°53' E 007°49'32 1.8
2017-Nov-06 02:28N 53°35' E 008°33'0 0.0
2017-Nov-06 01:58N 53°35' E 008°33'0 0.0
2017-Nov-06 01:28N 53°35' E 008°33'0 0.0
2017-Nov-06 00:58N 53°35' E 008°33'0 0.0
2017-Nov-06 00:28N 53°35' E 008°33'0 0.0
2017-Nov-05 23:58N 53°35' E 008°33'0 0.0
2017-Nov-05 23:28N 53°35' E 008°33'0 0.0
2017-Nov-05 22:58N 53°35' E 008°33'0 0.0
2017-Nov-05 22:28N 53°35' E 008°33'0 0.0
2017-Nov-05 21:58N 53°35' E 008°33'0 0.0
2017-Nov-05 21:28N 53°35' E 008°33'0 0.0
2017-Nov-05 20:58N 53°35' E 008°33'0 0.0
2017-Nov-05 20:28N 53°35' E 008°33'0 0.0
2017-Nov-05 19:58N 53°35' E 008°33'0 0.0
2017-Nov-05 19:28N 53°35' E 008°33'0 0.0
2017-Nov-05 18:58N 53°35' E 008°33'0 0.0
2017-Nov-05 18:28N 53°35' E 008°33'0 0.0
2017-Nov-05 17:58N 53°35' E 008°33'0 0.0
2017-Nov-05 17:28N 53°35' E 008°33'0 0.0
2017-Nov-05 16:58N 53°35' E 008°33'0 0.0
2017-Nov-05 16:25N 53°35' E 008°33'0 0.0
2017-Nov-05 15:58N 53°35' E 008°33'0 0.0
2017-Nov-05 15:28N 53°35' E 008°33'0 0.0
2017-Nov-05 14:58N 53°35' E 008°33'0 0.0
2017-Nov-05 14:28N 53°35' E 008°33'0 0.0
2017-Nov-05 13:58N 53°35' E 008°33'0 0.0
2017-Nov-05 13:28N 53°35' E 008°33'0 0.0
2017-Nov-05 12:58N 53°35' E 008°33'0 0.0
2017-Nov-05 12:28N 53°35' E 008°33'0 0.0
2017-Nov-05 11:58N 53°35' E 008°33'0 0.0
2017-Nov-05 11:28N 53°35' E 008°33'0 0.0
2017-Nov-05 10:58N 53°35' E 008°33'0 0.0
2017-Nov-05 10:28N 53°35' E 008°33'0 0.0
2017-Nov-05 09:58N 53°35' E 008°33'0 0.0
2017-Nov-05 09:28N 53°35' E 008°33'0 0.0
2017-Nov-05 08:58N 53°35' E 008°33'0 0.0
2017-Nov-05 08:28N 53°35' E 008°33'0 0.0
2017-Nov-05 07:58N 53°35' E 008°33'0 0.0
2017-Nov-05 07:28N 53°35' E 008°33'0 0.0
2017-Nov-05 06:58N 53°35' E 008°33'0 0.0
2017-Nov-05 06:28N 53°35' E 008°33'0 0.0
2017-Nov-05 05:58N 53°35' E 008°33'0 0.0
2017-Nov-05 05:28N 53°35' E 008°33'0 0.0
2017-Nov-05 04:58N 53°35' E 008°33'0 0.0
2017-Nov-05 04:28N 53°35' E 008°33'0 0.0
2017-Nov-05 03:58N 53°35' E 008°33'0 0.0
2017-Nov-05 03:28N 53°35' E 008°33'0 0.0
2017-Nov-05 02:58N 53°35' E 008°33'0 0.0
2017-Nov-05 02:28N 53°35' E 008°33'0 0.0
2017-Nov-05 01:58N 53°35' E 008°33'0 0.0
2017-Nov-05 01:28N 53°35' E 008°33'0 0.0
2017-Nov-05 00:58N 53°35' E 008°33'0 0.0
2017-Nov-05 00:28N 53°35' E 008°33'0 0.0
2017-Nov-04 23:58N 53°35' E 008°33'0 0.0
2017-Nov-04 23:28N 53°35' E 008°33'0 0.0
2017-Nov-04 22:58N 53°35' E 008°33'0 0.7
2017-Nov-04 22:30N 53°34' E 008°33'0 0.9
2017-Nov-04 22:00N 53°34' E 008°33'3 5.8
2017-Nov-04 21:30N 53°36' E 008°30'713.7
2017-Nov-04 21:00N 53°41' E 008°22'713.8
2017-Nov-04 20:30N 53°45' E 008°12'713.7
2017-Nov-04 19:58N 53°50' E 008°03'613.5
2017-Nov-04 19:30N 53°52' E 007°53'4 8.1
2017-Nov-04 19:00N 53°54' E 007°47'1 1.1
2017-Nov-04 18:29N 53°55' E 007°48'0 0.1
2017-Nov-04 17:59N 53°55' E 007°48'0 0.1
2017-Nov-04 16:41N 53°55' E 007°47'0 0.0
2017-Nov-04 16:17N 53°55' E 007°47'0 0.0
2017-Nov-04 15:53N 53°55' E 007°47'0 0.0
2017-Nov-04 15:26N 53°55' E 007°47'  
Track history (hours):
 
Tides and Currents Weather Stations Pressure Air Temp Water Temp Dewpoint Dewpoint Depression Visibility Wind Speed Wind Dir Waves Ship Positions

Grand Pearl

Last reported at 2017-Nov-14 14:58 UTC. Time now 2017-Nov-22 20:36 UTC.
Position N 09°16' W 016°16'.
Warning: this ship's position is 8 days out of date.

Length 199 m; draft 9.6 m.

Type: Cargo ship. MMSI: 371147000.

Date/timePositionNaut miles runAvg speedWind from/ knotsBaromVisibWave heightAir tempDewpointWater temp
2017-Nov-14 14:58N 09°16' W 016°16'  
2017-Nov-11 17:13N 28°15' W 016°07'517.5
2017-Nov-11 16:56N 28°19' W 016°03'817.6
2017-Nov-11 16:30N 28°25' W 015°58'917.5
2017-Nov-11 16:01N 28°32' W 015°52'917.3
2017-Nov-11 15:30N 28°39' W 015°46'917.2
2017-Nov-11 15:01N 28°45' W 015°40'917.2
2017-Nov-11 14:30N 28°52' W 015°34'917.0
2017-Nov-11 14:00N 28°59' W 015°28'816.4
2017-Nov-11 13:30N 29°06' W 015°23'816.5
2017-Nov-11 13:00N 29°14' W 015°21'917.0
2017-Nov-11 12:30N 29°23' W 015°18'817.0
2017-Nov-11 12:00N 29°31' W 015°16'917.0
2017-Nov-11 11:30N 29°39' W 015°13'816.9
2017-Nov-11 11:00N 29°47' W 015°10'816.9
2017-Nov-11 10:30N 29°55' W 015°08'816.9
2017-Nov-11 10:01N 30°03' W 015°05'816.8
2017-Nov-11 09:31N 30°11' W 015°02'816.9
2017-Nov-11 09:00N 30°20' W 014°60'816.8
2017-Nov-11 08:30N 30°28' W 014°57'916.7
2017-Nov-11 07:59N 30°36' W 014°55'816.8
2017-Nov-11 07:30N 30°44' W 014°52'917.0
2017-Nov-11 07:00N 30°52' W 014°50'1016.9
2017-Nov-11 06:25N 31°02' W 014°46'716.9
2017-Nov-11 06:00N 31°08' W 014°44'916.9
2017-Nov-11 05:27N 31°17' W 014°42'816.8
2017-Nov-11 05:00N 31°25' W 014°39'916.8
2017-Nov-11 04:29N 31°33' W 014°36'816.6
2017-Nov-11 04:00N 31°41' W 014°34'1216.6
2017-Nov-11 03:16N 31°52' W 014°30'3216.5
2017-Nov-11 01:20N 32°23' W 014°20'516.1
2017-Nov-11 01:01N 32°28' W 014°19'816.3
2017-Nov-11 00:30N 32°36' W 014°16'816.6
2017-Nov-11 00:00N 32°44' W 014°13'816.5
2017-Nov-10 23:31N 32°52' W 014°11'6716.5
2017-Nov-10 19:25N 33°57' W 013°50'2516.7
2017-Nov-10 17:53N 34°22' W 013°41'3117.2
2017-Nov-10 16:04N 34°52' W 013°31'217.0
2017-Nov-10 15:56N 34°54' W 013°30'  
2017-Nov-08 04:46N 49°40' W 003°36'717.5
2017-Nov-08 04:23N 49°44' W 003°27'718.7
2017-Nov-08 04:01N 49°48' W 003°19'1019.0
2017-Nov-08 03:30N 49°54' W 003°07'1019.4
2017-Nov-08 03:01N 49°58' W 002°53'1019.3
2017-Nov-08 02:31N 50°01' W 002°39'918.8
2017-Nov-08 02:01N 50°04' W 002°25'1117.9
2017-Nov-08 01:24N 50°08' W 002°09'716.8
2017-Nov-08 01:00N 50°10' W 001°59'815.9
2017-Nov-08 00:30N 50°12' W 001°47'815.1
2017-Nov-08 00:00N 50°14' W 001°36'714.5
2017-Nov-07 23:30N 50°16' W 001°25'714.0
2017-Nov-07 23:00N 50°17' W 001°14'713.4
2017-Nov-07 22:29N 50°19' W 001°04'713.5
2017-Nov-07 21:59N 50°21' W 000°54'2014.7
2017-Nov-07 20:38N 50°26' W 000°24'215.5
2017-Nov-07 20:30N 50°27' W 000°21'816.1
2017-Nov-07 20:01N 50°30' W 000°09'916.8
2017-Nov-07 19:30N 50°32' E 000°04'917.4
2017-Nov-07 19:01N 50°35' E 000°17'917.9
2017-Nov-07 18:31N 50°37' E 000°31'917.9
2017-Nov-07 18:01N 50°40' E 000°44'917.4
2017-Nov-07 17:31N 50°45' E 000°55'816.6
2017-Nov-07 17:01N 50°50' E 001°06'815.8
2017-Nov-07 16:31N 50°54' E 001°17'714.8
2017-Nov-07 16:01N 50°59' E 001°24'713.9
2017-Nov-07 15:30N 51°05' E 001°31'612.7
2017-Nov-07 15:00N 51°09' E 001°39'713.2
2017-Nov-07 14:30N 51°14' E 001°46'713.7
2017-Nov-07 14:00N 51°20' E 001°51'714.7
2017-Nov-07 13:30N 51°26' E 001°56'815.4
2017-Nov-07 13:00N 51°33' E 002°02'816.7
2017-Nov-07 12:30N 51°39' E 002°12'1017.4
2017-Nov-07 11:56N 51°46' E 002°23'8717.2
2017-Nov-07 06:52N 52°54' E 003°53'1015.1
2017-Nov-07 06:11N 53°01' E 004°06'315.3
2017-Nov-07 06:00N 53°02' E 004°09'815.1
2017-Nov-07 05:30N 53°08' E 004°19'714.5
2017-Nov-07 04:59N 53°13' E 004°26'715.3
2017-Nov-07 04:30N 53°20' E 004°30'1015.7
2017-Nov-07 03:51N 53°29' E 004°39'617.2
2017-Nov-07 03:28N 53°31' E 004°49'817.5
2017-Nov-07 03:00N 53°33' E 005°03'1317.7
2017-Nov-07 02:16N 53°38' E 005°23'517.7
2017-Nov-07 01:59N 53°39' E 005°31'7616.0
2017-Nov-06 21:14N 53°59' E 007°35'413.7
2017-Nov-06 20:56N 53°57' E 007°41'613.4
2017-Nov-06 20:27N 53°53' E 007°49'32 1.8
2017-Nov-06 02:28N 53°35' E 008°33'0 0.0
2017-Nov-06 01:58N 53°35' E 008°33'0 0.0
2017-Nov-06 01:28N 53°35' E 008°33'0 0.0
2017-Nov-06 00:58N 53°35' E 008°33'0 0.0
2017-Nov-06 00:28N 53°35' E 008°33'0 0.0
2017-Nov-05 23:58N 53°35' E 008°33'0 0.0
2017-Nov-05 23:28N 53°35' E 008°33'0 0.0
2017-Nov-05 22:58N 53°35' E 008°33'0 0.0
2017-Nov-05 22:28N 53°35' E 008°33'0 0.0
2017-Nov-05 21:58N 53°35' E 008°33'0 0.0
2017-Nov-05 21:28N 53°35' E 008°33'0 0.0
2017-Nov-05 20:58N 53°35' E 008°33'0 0.0
2017-Nov-05 20:28N 53°35' E 008°33'0 0.0
2017-Nov-05 19:58N 53°35' E 008°33'0 0.0
2017-Nov-05 19:28N 53°35' E 008°33'0 0.0
2017-Nov-05 18:58N 53°35' E 008°33'0 0.0
2017-Nov-05 18:28N 53°35' E 008°33'0 0.0
2017-Nov-05 17:58N 53°35' E 008°33'0 0.0
2017-Nov-05 17:28N 53°35' E 008°33'0 0.0
2017-Nov-05 16:58N 53°35' E 008°33'0 0.0
2017-Nov-05 16:25N 53°35' E 008°33'0 0.0
2017-Nov-05 15:58N 53°35' E 008°33'0 0.0
2017-Nov-05 15:28N 53°35' E 008°33'0 0.0
2017-Nov-05 14:58N 53°35' E 008°33'0 0.0
2017-Nov-05 14:28N 53°35' E 008°33'0 0.0
2017-Nov-05 13:58N 53°35' E 008°33'0 0.0
2017-Nov-05 13:28N 53°35' E 008°33'0 0.0
2017-Nov-05 12:58N 53°35' E 008°33'0 0.0
2017-Nov-05 12:28N 53°35' E 008°33'0 0.0
2017-Nov-05 11:58N 53°35' E 008°33'0 0.0
2017-Nov-05 11:28N 53°35' E 008°33'0 0.0
2017-Nov-05 10:58N 53°35' E 008°33'0 0.0
2017-Nov-05 10:28N 53°35' E 008°33'0 0.0
2017-Nov-05 09:58N 53°35' E 008°33'0 0.0
2017-Nov-05 09:28N 53°35' E 008°33'0 0.0
2017-Nov-05 08:58N 53°35' E 008°33'0 0.0
2017-Nov-05 08:28N 53°35' E 008°33'0 0.0
2017-Nov-05 07:58N 53°35' E 008°33'0 0.0
2017-Nov-05 07:28N 53°35' E 008°33'0 0.0
2017-Nov-05 06:58N 53°35' E 008°33'0 0.0
2017-Nov-05 06:28N 53°35' E 008°33'0 0.0
2017-Nov-05 05:58N 53°35' E 008°33'0 0.0
2017-Nov-05 05:28N 53°35' E 008°33'0 0.0
2017-Nov-05 04:58N 53°35' E 008°33'0 0.0
2017-Nov-05 04:28N 53°35' E 008°33'0 0.0
2017-Nov-05 03:58N 53°35' E 008°33'0 0.0
2017-Nov-05 03:28N 53°35' E 008°33'0 0.0
2017-Nov-05 02:58N 53°35' E 008°33'0 0.0
2017-Nov-05 02:28N 53°35' E 008°33'0 0.0
2017-Nov-05 01:58N 53°35' E 008°33'0 0.0
2017-Nov-05 01:28N 53°35' E 008°33'0 0.0
2017-Nov-05 00:58N 53°35' E 008°33'0 0.0
2017-Nov-05 00:28N 53°35' E 008°33'0 0.0
2017-Nov-04 23:58N 53°35' E 008°33'0 0.0
2017-Nov-04 23:28N 53°35' E 008°33'0 0.0
2017-Nov-04 22:58N 53°35' E 008°33'0 0.7
2017-Nov-04 22:30N 53°34' E 008°33'0 0.9
2017-Nov-04 22:00N 53°34' E 008°33'3 5.8
2017-Nov-04 21:30N 53°36' E 008°30'713.7
2017-Nov-04 21:00N 53°41' E 008°22'713.8
2017-Nov-04 20:30N 53°45' E 008°12'713.7
2017-Nov-04 19:58N 53°50' E 008°03'613.5
2017-Nov-04 19:30N 53°52' E 007°53'4 8.1
2017-Nov-04 19:00N 53°54' E 007°47'1 1.1
2017-Nov-04 18:29N 53°55' E 007°48'0 0.1
2017-Nov-04 17:59N 53°55' E 007°48'0 0.1
2017-Nov-04 16:41N 53°55' E 007°47'0 0.0
2017-Nov-04 16:17N 53°55' E 007°47'0 0.0
2017-Nov-04 15:53N 53°55' E 007°47'0 0.0
2017-Nov-04 15:26N 53°55' E 007°47'  

Dump ship's entire track history